createdAt,value
2018-12-21T00:00:42.733Z,47.15
2018-12-21T00:01:42.872Z,47.2
2018-12-21T00:02:44.866Z,47.17
2018-12-21T00:03:42.502Z,47.2
2018-12-21T00:04:42.530Z,47.17
2018-12-21T00:05:42.852Z,47.17
2018-12-21T00:06:42.533Z,47.17
2018-12-21T00:07:42.590Z,47.19
2018-12-21T00:08:42.434Z,47.2
2018-12-21T00:09:42.395Z,47.24
2018-12-21T00:10:42.705Z,47.14
2018-12-21T00:11:42.575Z,47.22
2018-12-21T00:12:42.813Z,47.19
2018-12-21T00:13:42.556Z,47.22
2018-12-21T00:14:42.621Z,47.21
2018-12-21T00:15:42.592Z,47.23
2018-12-21T00:16:43.068Z,47.19
2018-12-21T00:17:42.848Z,47.24
2018-12-21T00:18:42.779Z,47.23
2018-12-21T00:19:42.967Z,47.21
2018-12-21T00:20:42.853Z,47.25
2018-12-21T00:21:42.841Z,47.23
2018-12-21T00:22:42.668Z,47.25
2018-12-21T00:23:42.944Z,47.23
2018-12-21T00:24:42.479Z,47.23
2018-12-21T00:25:42.622Z,47.28
2018-12-21T00:26:42.790Z,47.2
2018-12-21T00:27:42.671Z,47.26
2018-12-21T00:28:42.494Z,47.27
2018-12-21T00:29:42.935Z,47.24
2018-12-21T00:30:42.401Z,47.29
2018-12-21T00:31:43.217Z,47.22
2018-12-21T00:32:42.311Z,47.25
2018-12-21T00:33:43.060Z,47.25
2018-12-21T00:34:42.966Z,47.25
2018-12-21T00:35:42.448Z,47.25
2018-12-21T00:36:42.530Z,47.24
2018-12-21T00:37:42.496Z,47.24
2018-12-21T00:38:43.164Z,47.25
2018-12-21T00:39:42.424Z,47.28
2018-12-21T00:40:42.998Z,47.26
2018-12-21T00:41:42.612Z,47.3
2018-12-21T00:42:42.585Z,47.23
2018-12-21T00:43:42.802Z,47.26
2018-12-21T00:44:42.909Z,47.31
2018-12-21T00:45:42.520Z,47.3
2018-12-21T00:46:42.434Z,47.29
2018-12-21T00:47:43.058Z,47.29
2018-12-21T00:48:42.746Z,47.23
2018-12-21T00:49:42.510Z,47.28
2018-12-21T00:50:43.081Z,47.25
2018-12-21T00:51:43.027Z,47.25
2018-12-21T00:52:42.852Z,47.27
2018-12-21T00:53:42.557Z,47.25
2018-12-21T00:54:42.448Z,47.25
2018-12-21T00:55:42.559Z,47.24
2018-12-21T00:56:42.834Z,47.28
2018-12-21T00:57:42.381Z,47.25
2018-12-21T00:58:42.521Z,47.28
2018-12-21T00:59:42.439Z,47.23
2018-12-21T01:00:42.739Z,47.28
2018-12-21T01:01:42.544Z,47.3
2018-12-21T01:02:42.962Z,47.27
2018-12-21T01:03:42.470Z,47.28
2018-12-21T01:04:42.409Z,47.29
2018-12-21T01:05:42.819Z,47.3
2018-12-21T01:06:42.444Z,47.33
2018-12-21T01:07:42.889Z,47.25
2018-12-21T01:08:42.430Z,47.32
2018-12-21T01:09:42.779Z,47.31
2018-12-21T01:10:42.561Z,47.31
2018-12-21T01:11:42.466Z,47.32
2018-12-21T01:12:42.421Z,47.31
2018-12-21T01:13:42.722Z,47.33
2018-12-21T01:14:42.866Z,47.31
2018-12-21T01:15:42.546Z,47.34
2018-12-21T01:16:42.614Z,47.3
2018-12-21T01:17:42.428Z,47.34
2018-12-21T01:18:42.869Z,47.31
2018-12-21T01:19:43.317Z,47.34
2018-12-21T01:20:42.895Z,47.31
2018-12-21T01:21:42.452Z,47.34
2018-12-21T01:22:42.435Z,47.31
2018-12-21T01:23:42.842Z,47.33
2018-12-21T01:24:42.480Z,47.35
2018-12-21T01:25:42.835Z,47.32
2018-12-21T01:26:42.456Z,47.37
2018-12-21T01:27:43.534Z,47.33
2018-12-21T01:28:42.711Z,47.35
2018-12-21T01:29:42.827Z,47.37
2018-12-21T01:30:42.792Z,47.33
2018-12-21T01:31:42.505Z,47.33
2018-12-21T01:32:42.586Z,47.38
2018-12-21T01:33:42.393Z,47.32
2018-12-21T01:34:42.908Z,47.31
2018-12-21T01:35:42.579Z,47.34
2018-12-21T01:36:42.472Z,47.35
2018-12-21T01:37:42.437Z,47.33
2018-12-21T01:38:42.493Z,47.36
2018-12-21T01:39:42.661Z,47.36
2018-12-21T01:40:42.450Z,47.36
2018-12-21T01:41:42.635Z,47.38
2018-12-21T01:42:42.942Z,47.36
2018-12-21T01:43:42.548Z,47.39
2018-12-21T01:44:42.417Z,47.36
2018-12-21T01:45:42.517Z,47.38
2018-12-21T01:46:42.652Z,47.33
2018-12-21T01:47:43.284Z,47.36
2018-12-21T01:48:42.360Z,47.35
2018-12-21T01:49:42.612Z,47.35
2018-12-21T01:50:42.695Z,47.36
2018-12-21T01:51:47.658Z,47.34
2018-12-21T01:52:42.582Z,47.36
2018-12-21T01:53:42.448Z,47.38
2018-12-21T01:54:42.550Z,47.37
2018-12-21T01:55:43.265Z,47.39
2018-12-21T01:56:42.855Z,47.36
2018-12-21T01:57:43.209Z,47.35
2018-12-21T01:58:42.499Z,47.36
2018-12-21T01:59:42.461Z,47.37
2018-12-21T02:00:42.843Z,47.35
2018-12-21T02:01:42.772Z,47.38
2018-12-21T02:02:42.366Z,47.37
2018-12-21T02:03:42.874Z,47.38
2018-12-21T02:04:42.795Z,47.35
2018-12-21T02:05:42.893Z,47.38
2018-12-21T02:06:42.646Z,47.39
2018-12-21T02:07:42.486Z,47.39
2018-12-21T02:08:42.365Z,47.42
2018-12-21T02:09:42.725Z,47.37
2018-12-21T02:10:42.379Z,47.38
2018-12-21T02:11:42.328Z,47.39
2018-12-21T02:12:42.750Z,47.38
2018-12-21T02:13:42.734Z,47.38
2018-12-21T02:14:42.672Z,47.35
2018-12-21T02:15:42.704Z,47.39
2018-12-21T02:16:42.499Z,47.39
2018-12-21T02:17:42.888Z,47.39
2018-12-21T02:18:42.799Z,47.41
2018-12-21T02:19:42.542Z,47.36
2018-12-21T02:20:42.452Z,47.36
2018-12-21T02:21:42.604Z,47.4
2018-12-21T02:22:42.533Z,47.4
2018-12-21T02:23:42.543Z,47.35
2018-12-21T02:24:42.791Z,47.38
2018-12-21T02:25:43.449Z,47.36
2018-12-21T02:26:42.365Z,47.36
2018-12-21T02:27:42.500Z,47.39
2018-12-21T02:28:42.509Z,47.39
2018-12-21T02:29:42.365Z,47.41
2018-12-21T02:30:42.428Z,47.39
2018-12-21T02:31:42.945Z,47.4
2018-12-21T02:32:43.512Z,47.41
2018-12-21T02:33:42.893Z,47.38
2018-12-21T02:34:42.557Z,47.41
2018-12-21T02:35:42.430Z,47.38
2018-12-21T02:36:42.526Z,47.41
2018-12-21T02:37:42.623Z,47.41
2018-12-21T02:38:42.463Z,47.41
2018-12-21T02:39:42.584Z,47.42
2018-12-21T02:40:42.715Z,47.36
2018-12-21T02:41:42.572Z,47.39
2018-12-21T02:42:42.397Z,47.43
2018-12-21T02:43:42.532Z,47.44
2018-12-21T02:44:42.404Z,47.44
2018-12-21T02:45:43.100Z,47.43
2018-12-21T02:46:42.296Z,47.44
2018-12-21T02:47:42.355Z,47.42
2018-12-21T02:48:42.414Z,47.43
2018-12-21T02:49:42.919Z,47.44
2018-12-21T02:50:42.619Z,47.45
2018-12-21T02:51:42.508Z,47.38
2018-12-21T02:52:42.643Z,47.44
2018-12-21T02:53:42.500Z,47.43
2018-12-21T02:54:42.560Z,47.46
2018-12-21T02:55:42.931Z,47.44
2018-12-21T02:56:42.310Z,47.46
2018-12-21T02:57:42.711Z,47.49
2018-12-21T02:58:42.795Z,47.49
2018-12-21T02:59:42.870Z,47.47
2018-12-21T03:00:42.465Z,47.43
2018-12-21T03:01:43.000Z,47.47
2018-12-21T03:02:42.412Z,47.42
2018-12-21T03:03:42.843Z,47.47
2018-12-21T03:04:43.365Z,47.44
2018-12-21T03:05:42.355Z,47.42
2018-12-21T03:06:42.330Z,47.44
2018-12-21T03:07:42.562Z,47.41
2018-12-21T03:08:42.624Z,47.44
2018-12-21T03:09:42.858Z,47.41
2018-12-21T03:10:42.354Z,47.44
2018-12-21T03:11:42.488Z,47.45
2018-12-21T03:12:42.819Z,47.44
2018-12-21T03:13:43.110Z,47.46
2018-12-21T03:14:43.361Z,47.48
2018-12-21T03:15:42.518Z,47.47
2018-12-21T03:16:42.785Z,47.44
2018-12-21T03:17:42.888Z,47.46
2018-12-21T03:18:42.506Z,47.44
2018-12-21T03:19:42.571Z,47.45
2018-12-21T03:20:42.645Z,47.47
2018-12-21T03:21:42.549Z,47.43
2018-12-21T03:22:42.574Z,47.41
2018-12-21T03:23:42.550Z,47.44
2018-12-21T03:24:42.790Z,47.44
2018-12-21T03:25:42.496Z,47.43
2018-12-21T03:26:42.517Z,47.43
2018-12-21T03:27:42.690Z,47.43
2018-12-21T03:28:42.410Z,47.44
2018-12-21T03:29:43.074Z,47.44
2018-12-21T03:30:42.966Z,47.48
2018-12-21T03:31:42.854Z,47.44
2018-12-21T03:32:42.489Z,47.46
2018-12-21T03:33:42.795Z,47.47
2018-12-21T03:34:42.782Z,47.42
2018-12-21T03:35:42.687Z,47.44
2018-12-21T03:36:43.033Z,47.47
2018-12-21T03:37:42.966Z,47.46
2018-12-21T03:38:42.706Z,47.44
2018-12-21T03:39:42.867Z,47.46
2018-12-21T03:40:43.267Z,47.49
2018-12-21T03:41:42.292Z,47.45
2018-12-21T03:42:43.256Z,47.48
2018-12-21T03:43:42.417Z,47.44
2018-12-21T03:44:42.276Z,47.47
2018-12-21T03:45:42.713Z,47.44
2018-12-21T03:46:42.537Z,47.45
2018-12-21T03:47:42.727Z,47.44
2018-12-21T03:48:42.838Z,47.46
2018-12-21T03:49:42.680Z,47.44
2018-12-21T03:50:42.737Z,47.44
2018-12-21T03:51:42.361Z,47.49
2018-12-21T03:52:42.814Z,47.43
2018-12-21T03:53:42.404Z,47.43
2018-12-21T03:54:42.782Z,47.46
2018-12-21T03:55:42.288Z,47.46
2018-12-21T03:56:42.485Z,47.44
2018-12-21T03:57:42.669Z,47.45
2018-12-21T03:58:42.355Z,47.45
2018-12-21T03:59:42.298Z,47.5
2018-12-21T04:00:42.696Z,47.51
2018-12-21T04:01:42.828Z,47.46
2018-12-21T04:02:42.569Z,47.43
2018-12-21T04:03:42.908Z,47.45
2018-12-21T04:04:42.655Z,47.45
2018-12-21T04:05:42.470Z,47.49
2018-12-21T04:06:42.348Z,47.47
2018-12-21T04:07:42.973Z,47.47
2018-12-21T04:08:42.349Z,47.48
2018-12-21T04:09:42.534Z,47.47
2018-12-21T04:10:42.557Z,47.48
2018-12-21T04:11:42.359Z,47.5
2018-12-21T04:12:42.840Z,47.52
2018-12-21T04:13:42.460Z,47.5
2018-12-21T04:14:42.482Z,47.47
2018-12-21T04:15:42.695Z,47.47
2018-12-21T04:16:42.471Z,47.46
2018-12-21T04:17:42.267Z,47.48
2018-12-21T04:18:42.497Z,47.5
2018-12-21T04:19:42.315Z,47.48
2018-12-21T04:20:42.482Z,47.48
2018-12-21T04:21:42.758Z,47.5
2018-12-21T04:22:42.395Z,47.49
2018-12-21T04:23:42.557Z,47.48
2018-12-21T04:24:42.297Z,47.48
2018-12-21T04:25:42.782Z,47.5
2018-12-21T04:26:42.507Z,47.5
2018-12-21T04:27:42.505Z,47.51
2018-12-21T04:28:42.317Z,47.5
2018-12-21T04:29:42.426Z,47.51
2018-12-21T04:30:42.573Z,47.51
2018-12-21T04:31:42.652Z,47.49
2018-12-21T04:32:42.441Z,47.49
2018-12-21T04:33:42.320Z,47.48
2018-12-21T04:34:42.607Z,47.48
2018-12-21T04:35:42.600Z,47.5
2018-12-21T04:36:42.709Z,47.49
2018-12-21T04:37:42.448Z,47.45
2018-12-21T04:38:42.353Z,47.46
2018-12-21T04:39:42.892Z,47.48
2018-12-21T04:40:42.792Z,47.46
2018-12-21T04:41:42.291Z,47.52
2018-12-21T04:42:42.435Z,47.49
2018-12-21T04:43:42.355Z,47.48
2018-12-21T04:44:42.363Z,47.49
2018-12-21T04:45:42.755Z,47.51
2018-12-21T04:46:42.211Z,47.5
2018-12-21T04:47:42.595Z,47.51
2018-12-21T04:48:43.381Z,47.51
2018-12-21T04:49:42.384Z,47.5
2018-12-21T04:50:42.698Z,47.55
2018-12-21T04:51:43.272Z,47.53
2018-12-21T04:52:43.962Z,47.52
2018-12-21T04:53:42.505Z,47.51
2018-12-21T04:54:42.944Z,47.5
2018-12-21T04:55:42.743Z,47.55
2018-12-21T04:56:43.107Z,47.52
2018-12-21T04:57:42.850Z,47.54
2018-12-21T04:58:42.917Z,47.47
2018-12-21T04:59:42.856Z,47.54
2018-12-21T05:00:42.372Z,47.5
2018-12-21T05:01:42.585Z,47.47
2018-12-21T05:02:42.532Z,47.4
2018-12-21T05:03:42.786Z,47.44
2018-12-21T05:04:42.361Z,47.37
2018-12-21T05:05:42.727Z,47.39
2018-12-21T05:06:43.091Z,47.39
2018-12-21T05:07:42.429Z,47.41
2018-12-21T05:08:42.515Z,47.39
2018-12-21T05:09:42.312Z,47.35
2018-12-21T05:10:42.463Z,47.31
2018-12-21T05:11:42.331Z,47.29
2018-12-21T05:12:42.625Z,47.29
2018-12-21T05:13:42.261Z,47.22
2018-12-21T05:14:42.611Z,47.27
2018-12-21T05:15:42.487Z,47.22
2018-12-21T05:16:42.368Z,47.25
2018-12-21T05:17:42.784Z,47.2
2018-12-21T05:18:42.279Z,47.2
2018-12-21T05:19:42.594Z,47.13
2018-12-21T05:20:42.293Z,47.2
2018-12-21T05:21:42.473Z,47.19
2018-12-21T05:22:42.453Z,47.2
2018-12-21T05:23:42.381Z,47.14
2018-12-21T05:24:42.926Z,47.19
2018-12-21T05:25:42.433Z,47.18
2018-12-21T05:26:42.973Z,47.15
2018-12-21T05:27:42.242Z,47.14
2018-12-21T05:28:42.385Z,47.21
2018-12-21T05:29:42.498Z,47.23
2018-12-21T05:30:42.514Z,47.13
2018-12-21T05:31:42.426Z,47.12
2018-12-21T05:32:42.956Z,47.19
2018-12-21T05:33:42.878Z,47.13
2018-12-21T05:34:42.824Z,47.13
2018-12-21T05:35:42.379Z,47.18
2018-12-21T05:36:42.243Z,47.1
2018-12-21T05:37:42.598Z,47.2
2018-12-21T05:38:42.522Z,47.18
2018-12-21T05:39:42.488Z,47.18
2018-12-21T05:40:42.500Z,47.19
2018-12-21T05:41:42.361Z,47.18
2018-12-21T05:42:42.615Z,47.17
2018-12-21T05:43:42.273Z,47.2
2018-12-21T05:44:42.637Z,47.19
2018-12-21T05:45:42.780Z,47.19
2018-12-21T05:46:42.450Z,47.14
2018-12-21T05:47:42.113Z,47.13
2018-12-21T05:48:42.802Z,47.17
2018-12-21T05:49:42.401Z,47.11
2018-12-21T05:50:42.898Z,47.13
2018-12-21T05:51:42.463Z,47.13
2018-12-21T05:52:42.392Z,47.14
2018-12-21T05:53:42.499Z,47.12
2018-12-21T05:54:42.537Z,47.11
2018-12-21T05:55:42.378Z,47.06
2018-12-21T05:56:42.423Z,47.05
2018-12-21T05:57:42.376Z,47.02
2018-12-21T05:58:42.420Z,47.03
2018-12-21T05:59:42.638Z,47.03
2018-12-21T06:00:42.843Z,47.02
2018-12-21T06:01:42.410Z,46.98
2018-12-21T06:02:42.853Z,46.97
2018-12-21T06:03:42.341Z,46.97
2018-12-21T06:04:42.565Z,47
2018-12-21T06:05:42.212Z,47.02
2018-12-21T06:06:42.378Z,46.94
2018-12-21T06:07:42.364Z,46.98
2018-12-21T06:08:42.502Z,46.92
2018-12-21T06:09:42.816Z,47
2018-12-21T06:10:42.415Z,47
2018-12-21T06:11:43.002Z,47.01
2018-12-21T06:12:42.724Z,46.96
2018-12-21T06:13:42.636Z,46.99
2018-12-21T06:14:42.336Z,46.99
2018-12-21T06:15:42.500Z,47.04
2018-12-21T06:16:42.217Z,46.99
2018-12-21T06:17:42.461Z,47.04
2018-12-21T06:18:42.264Z,47.01
2018-12-21T06:19:42.580Z,47.02
2018-12-21T06:20:42.522Z,47.03
2018-12-21T06:21:42.449Z,47.01
2018-12-21T06:22:42.382Z,46.99
2018-12-21T06:23:42.606Z,47.03
2018-12-21T06:24:42.303Z,46.99
2018-12-21T06:25:43.504Z,47.05
2018-12-21T06:26:42.842Z,46.96
2018-12-21T06:27:42.524Z,47.01
2018-12-21T06:28:42.664Z,47.04
2018-12-21T06:29:42.577Z,47.02
2018-12-21T06:30:42.397Z,47
2018-12-21T06:31:43.088Z,46.98
2018-12-21T06:32:42.573Z,47.06
2018-12-21T06:33:42.588Z,47.01
2018-12-21T06:34:42.191Z,47.02
2018-12-21T06:35:42.428Z,47.02
2018-12-21T06:36:42.188Z,47.02
2018-12-21T06:37:42.715Z,47.02
2018-12-21T06:38:43.115Z,47.01
2018-12-21T06:39:43.000Z,47.04
2018-12-21T06:40:42.466Z,47.14
2018-12-21T06:41:42.527Z,47.21
2018-12-21T06:42:42.641Z,47.46
2018-12-21T06:43:42.876Z,47.52
2018-12-21T06:44:42.292Z,47.4
2018-12-21T06:45:42.498Z,47.33
2018-12-21T06:46:42.724Z,47.27
2018-12-21T06:47:43.123Z,47.25
2018-12-21T06:48:42.182Z,47.27
2018-12-21T06:49:42.425Z,47.18
2018-12-21T06:50:42.665Z,47.17
2018-12-21T06:51:42.537Z,47.29
2018-12-21T06:52:42.919Z,47.15
2018-12-21T06:53:42.624Z,47.01
2018-12-21T06:54:42.701Z,47.28
2018-12-21T06:55:42.616Z,47.21
2018-12-21T06:56:42.418Z,47.72
2018-12-21T06:57:42.200Z,47.52
2018-12-21T06:58:42.628Z,47.28
2018-12-21T06:59:42.280Z,46.96
2018-12-21T07:00:42.364Z,46.98
2018-12-21T07:01:42.758Z,47
2018-12-21T07:02:42.268Z,47.12
2018-12-21T07:03:42.794Z,46.95
2018-12-21T07:04:42.393Z,46.93
2018-12-21T07:05:42.713Z,46.97
2018-12-21T07:06:42.307Z,47.09
2018-12-21T07:07:42.364Z,47.19
2018-12-21T07:08:42.482Z,46.93
2018-12-21T07:09:42.198Z,46.95
2018-12-21T07:10:42.458Z,46.8
2018-12-21T07:11:42.278Z,46.88
2018-12-21T07:12:42.667Z,46.66
2018-12-21T07:13:42.785Z,46.73
2018-12-21T07:14:42.370Z,46.76
2018-12-21T07:15:43.060Z,46.75
2018-12-21T07:16:42.325Z,46.7
2018-12-21T07:17:42.214Z,46.73
2018-12-21T07:18:42.614Z,46.8
2018-12-21T07:19:42.500Z,46.89
2018-12-21T07:20:42.493Z,46.95
2018-12-21T07:21:42.443Z,47.11
2018-12-21T07:22:42.303Z,46.58
2018-12-21T07:23:42.872Z,46.51
2018-12-21T07:24:42.227Z,46.43
2018-12-21T07:25:42.444Z,46.54
2018-12-21T07:26:42.248Z,46.58
2018-12-21T07:27:42.371Z,46.59
2018-12-21T07:28:42.244Z,46.63
2018-12-21T07:29:42.154Z,46.59
2018-12-21T07:30:42.512Z,46.56
2018-12-21T07:31:42.299Z,46.64
2018-12-21T07:32:42.434Z,46.56
2018-12-21T07:33:42.365Z,46.6
2018-12-21T07:34:42.327Z,46.65
2018-12-21T07:35:43.127Z,46.61
2018-12-21T07:36:42.818Z,46.55
2018-12-21T07:37:42.370Z,46.53
2018-12-21T07:38:42.326Z,46.54
2018-12-21T07:39:42.211Z,46.49
2018-12-21T07:40:42.310Z,46.49
2018-12-21T07:41:42.479Z,46.42
2018-12-21T07:42:42.550Z,46.38
2018-12-21T07:43:42.440Z,46.4
2018-12-21T07:44:42.301Z,46.39
2018-12-21T07:45:42.449Z,46.43
2018-12-21T07:46:42.475Z,46.34
2018-12-21T07:47:42.313Z,46.36
2018-12-21T07:48:42.462Z,46.31
2018-12-21T07:49:42.492Z,46.31
2018-12-21T07:50:42.463Z,46.24
2018-12-21T07:51:42.426Z,46.29
2018-12-21T07:52:42.306Z,46.27
2018-12-21T07:53:42.313Z,46.32
2018-12-21T07:54:42.553Z,46.39
2018-12-21T07:55:42.395Z,46.52
2018-12-21T07:56:42.304Z,46.43
2018-12-21T07:57:42.346Z,46.46
2018-12-21T07:58:42.212Z,46.46
2018-12-21T07:59:42.422Z,46.46
2018-12-21T08:00:42.437Z,46.43
2018-12-21T08:01:42.331Z,46.49
2018-12-21T08:02:42.282Z,46.54
2018-12-21T08:03:42.796Z,46.6
2018-12-21T08:04:42.790Z,46.54
2018-12-21T08:05:42.796Z,46.54
2018-12-21T08:06:42.792Z,46.6
2018-12-21T08:07:42.253Z,46.56
2018-12-21T08:08:42.622Z,46.6
2018-12-21T08:09:42.290Z,46.65
2018-12-21T08:10:42.534Z,46.64
2018-12-21T08:11:42.768Z,46.64
2018-12-21T08:12:42.471Z,46.59
2018-12-21T08:13:42.767Z,46.67
2018-12-21T08:14:42.340Z,46.63
2018-12-21T08:15:43.311Z,46.62
2018-12-21T08:16:42.634Z,46.67
2018-12-21T08:17:42.580Z,46.68
2018-12-21T08:18:42.412Z,46.7
2018-12-21T08:19:42.623Z,46.71
2018-12-21T08:20:42.469Z,46.72
2018-12-21T08:21:42.429Z,46.65
2018-12-21T08:22:42.938Z,46.66
2018-12-21T08:23:44.835Z,46.74
2018-12-21T08:24:42.544Z,46.71
2018-12-21T08:25:42.844Z,46.72
2018-12-21T08:26:42.464Z,46.72
2018-12-21T08:27:42.597Z,46.71
2018-12-21T08:28:42.129Z,46.7
2018-12-21T08:29:42.818Z,46.69
2018-12-21T08:30:42.289Z,46.69
2018-12-21T08:31:42.251Z,46.74
2018-12-21T08:32:42.246Z,46.75
2018-12-21T08:33:42.346Z,46.73
2018-12-21T08:34:42.663Z,46.71
2018-12-21T08:35:42.517Z,46.69
2018-12-21T08:36:42.446Z,46.69
2018-12-21T08:37:42.644Z,46.7
2018-12-21T08:38:42.551Z,46.68
2018-12-21T08:39:42.530Z,46.72
2018-12-21T08:40:42.962Z,46.68
2018-12-21T08:41:42.221Z,46.74
2018-12-21T08:42:42.923Z,46.73
2018-12-21T08:43:42.299Z,46.74
2018-12-21T08:44:42.747Z,46.74
2018-12-21T08:45:42.467Z,46.71
2018-12-21T08:46:42.443Z,46.74
2018-12-21T08:47:42.349Z,46.7
2018-12-21T08:48:42.277Z,46.69
2018-12-21T08:49:42.437Z,46.69
2018-12-21T08:50:42.084Z,46.72
2018-12-21T08:51:42.750Z,46.66
2018-12-21T08:52:42.790Z,46.67
2018-12-21T08:53:42.439Z,46.65
2018-12-21T08:54:42.550Z,46.69
2018-12-21T08:55:42.214Z,46.7
2018-12-21T08:56:42.326Z,46.63
2018-12-21T08:57:42.437Z,46.63
2018-12-21T08:58:42.337Z,46.65
2018-12-21T08:59:43.055Z,46.6
2018-12-21T09:00:42.801Z,46.59
2018-12-21T09:01:42.341Z,46.68
2018-12-21T09:02:42.308Z,46.66
2018-12-21T09:03:42.343Z,46.62
2018-12-21T09:04:42.813Z,46.7
2018-12-21T09:05:42.755Z,46.64
2018-12-21T09:06:42.349Z,46.64
2018-12-21T09:07:42.294Z,46.66
2018-12-21T09:08:42.037Z,46.52
2018-12-21T09:09:42.248Z,46.77
2018-12-21T09:10:42.988Z,46.92
2018-12-21T09:11:42.614Z,46.91
2018-12-21T09:12:42.335Z,46.91
2018-12-21T09:13:42.393Z,47.05
2018-12-21T09:14:42.432Z,47.03
2018-12-21T09:15:42.793Z,47.03
2018-12-21T09:16:42.712Z,47.04
2018-12-21T09:17:42.347Z,47.05
2018-12-21T09:18:42.619Z,46.54
2018-12-21T09:19:42.537Z,46.58
2018-12-21T09:20:42.467Z,46.47
2018-12-21T09:21:42.539Z,46.46
2018-12-21T09:22:42.453Z,46.52
2018-12-21T09:23:42.230Z,46.54
2018-12-21T09:24:42.450Z,46.63
2018-12-21T09:25:42.243Z,46.65
2018-12-21T09:26:42.113Z,46.88
2018-12-21T09:27:42.210Z,46.95
2018-12-21T09:28:42.512Z,46.99
2018-12-21T09:29:42.817Z,46.91
2018-12-21T09:30:42.938Z,47.27
2018-12-21T09:31:42.297Z,47.01
2018-12-21T09:32:42.260Z,47.03
2018-12-21T09:33:42.768Z,47.01
2018-12-21T09:34:42.497Z,46.95
2018-12-21T09:35:42.541Z,47.05
2018-12-21T09:36:43.371Z,46.88
2018-12-21T09:37:42.363Z,46.9
2018-12-21T09:38:42.306Z,47.17
2018-12-21T09:39:42.309Z,47.1
2018-12-21T09:40:42.694Z,46.91
2018-12-21T09:41:42.238Z,47.08
2018-12-21T09:42:42.498Z,46.91
2018-12-21T09:43:42.803Z,46.99
2018-12-21T09:44:42.098Z,47.47
2018-12-21T09:45:42.849Z,46.96
2018-12-21T09:46:42.712Z,46.82
2018-12-21T09:47:42.608Z,46.82
2018-12-21T09:48:42.180Z,46.59
2018-12-21T09:49:42.394Z,46.62
2018-12-21T09:50:42.663Z,46.53
2018-12-21T09:51:42.684Z,46.49
2018-12-21T09:52:42.427Z,47.06
2018-12-21T09:53:42.077Z,46.83
2018-12-21T09:54:42.543Z,46.6
2018-12-21T09:55:43.425Z,46.51
2018-12-21T09:56:42.211Z,46.48
2018-12-21T09:57:42.371Z,46.38
2018-12-21T09:58:42.526Z,46.37
2018-12-21T09:59:42.340Z,46.39
2018-12-21T10:00:42.539Z,46.43
2018-12-21T10:01:42.533Z,46.36
2018-12-21T10:02:42.431Z,46.86
2018-12-21T10:03:42.935Z,46.96
2018-12-21T10:04:42.842Z,46.79
2018-12-21T10:05:42.397Z,46.89
2018-12-21T10:06:42.559Z,46.87
2018-12-21T10:07:42.261Z,46.84
2018-12-21T10:08:42.802Z,47.02
2018-12-21T10:09:42.334Z,46.93
2018-12-21T10:10:42.481Z,46.77
2018-12-21T10:11:42.180Z,46.6
2018-12-21T10:12:42.348Z,46.7
2018-12-21T10:13:42.369Z,46.67
2018-12-21T10:14:42.249Z,46.69
2018-12-21T10:15:42.352Z,46.88
2018-12-21T10:16:42.532Z,46.85
2018-12-21T10:17:42.552Z,47.24
2018-12-21T10:18:42.623Z,47.29
2018-12-21T10:19:42.676Z,47.07
2018-12-21T10:20:42.251Z,46.9
2018-12-21T10:21:42.289Z,46.88
2018-12-21T10:22:42.379Z,46.85
2018-12-21T10:23:42.224Z,47.14
2018-12-21T10:24:42.498Z,46.52
2018-12-21T10:25:42.980Z,46.59
2018-12-21T10:26:42.449Z,46.4
2018-12-21T10:27:42.275Z,46.46
2018-12-21T10:28:42.435Z,46.48
2018-12-21T10:29:42.540Z,46.81
2018-12-21T10:30:42.117Z,46.91
2018-12-21T10:31:42.223Z,46.63
2018-12-21T10:32:42.146Z,46.61
2018-12-21T10:33:42.592Z,46.55
2018-12-21T10:34:42.298Z,46.53
2018-12-21T10:35:42.871Z,46.55
2018-12-21T10:36:43.105Z,46.43
2018-12-21T10:37:42.397Z,46.48
2018-12-21T10:38:42.224Z,46.42
2018-12-21T10:39:42.446Z,46.4
2018-12-21T10:40:42.794Z,46.38
2018-12-21T10:41:42.305Z,46.39
2018-12-21T10:42:42.199Z,46.36
2018-12-21T10:43:42.384Z,46.31
2018-12-21T10:44:43.087Z,46.31
2018-12-21T10:45:42.296Z,46.28
2018-12-21T10:46:42.632Z,46.29
2018-12-21T10:47:42.374Z,46.3
2018-12-21T10:48:42.690Z,46.32
2018-12-21T10:49:42.198Z,46.34
2018-12-21T10:50:42.474Z,46.29
2018-12-21T10:51:42.291Z,46.29
2018-12-21T10:52:42.511Z,46.31
2018-12-21T10:53:46.968Z,46.27
2018-12-21T10:54:42.293Z,46.35
2018-12-21T10:55:42.651Z,46.44
2018-12-21T10:56:42.004Z,46.39
2018-12-21T10:57:42.655Z,46.49
2018-12-21T10:58:42.131Z,46.49
2018-12-21T10:59:44.031Z,46.53
2018-12-21T11:00:42.318Z,46.49
2018-12-21T11:01:42.253Z,46.51
2018-12-21T11:02:42.505Z,46.52
2018-12-21T11:03:42.261Z,46.53
2018-12-21T11:04:42.668Z,46.6
2018-12-21T11:05:43.286Z,46.61
2018-12-21T11:06:42.284Z,46.63
2018-12-21T11:07:42.161Z,46.61
2018-12-21T11:08:42.395Z,46.59
2018-12-21T11:09:42.957Z,46.59
2018-12-21T11:10:42.143Z,46.63
2018-12-21T11:11:42.378Z,46.63
2018-12-21T11:12:42.135Z,46.64
2018-12-21T11:13:42.357Z,46.65
2018-12-21T11:14:42.104Z,46.63
2018-12-21T11:15:42.283Z,46.67
2018-12-21T11:16:42.189Z,46.64
2018-12-21T11:17:44.349Z,46.68
2018-12-21T11:18:42.511Z,46.69
2018-12-21T11:19:42.374Z,46.71
2018-12-21T11:20:42.127Z,46.67
2018-12-21T11:21:43.026Z,46.68
2018-12-21T11:22:42.265Z,46.67
2018-12-21T11:23:42.304Z,46.7
2018-12-21T11:24:42.109Z,46.69
2018-12-21T11:25:42.510Z,46.68
2018-12-21T11:26:43.496Z,46.68
2018-12-21T11:27:42.440Z,46.68
2018-12-21T11:28:42.530Z,46.68
2018-12-21T11:29:42.682Z,46.7
2018-12-21T11:30:42.392Z,46.62
2018-12-21T11:31:42.221Z,46.59
2018-12-21T11:32:42.554Z,46.69
2018-12-21T11:33:43.756Z,46.69
2018-12-21T11:34:42.205Z,46.71
2018-12-21T11:35:42.571Z,46.68
2018-12-21T11:36:42.301Z,46.68
2018-12-21T11:37:42.892Z,46.73
2018-12-21T11:38:42.268Z,46.75
2018-12-21T11:39:42.479Z,46.68
2018-12-21T11:40:42.755Z,46.69
2018-12-21T11:41:42.745Z,46.71
2018-12-21T11:42:42.436Z,46.72
2018-12-21T11:43:42.520Z,46.7
2018-12-21T11:44:42.251Z,46.71
2018-12-21T11:45:43.042Z,46.7
2018-12-21T11:46:42.716Z,46.67
2018-12-21T11:47:42.606Z,46.76
2018-12-21T11:48:42.738Z,46.85
2018-12-21T11:49:42.718Z,46.92
2018-12-21T11:50:42.377Z,46.84
2018-12-21T11:51:42.566Z,46.86
2018-12-21T11:52:42.297Z,46.98
2018-12-21T11:53:42.305Z,46.97
2018-12-21T11:54:44.755Z,46.49
2018-12-21T11:55:42.702Z,46.52
2018-12-21T11:56:42.468Z,46.51
2018-12-21T11:57:42.280Z,46.45
2018-12-21T11:58:42.570Z,46.47
2018-12-21T11:59:45.480Z,46.39
2018-12-21T12:00:42.299Z,46.37
2018-12-21T12:01:42.622Z,46.38
2018-12-21T12:02:43.192Z,46.35
2018-12-21T12:03:42.736Z,46.34
2018-12-21T12:04:42.249Z,46.37
2018-12-21T12:05:43.019Z,46.3
2018-12-21T12:06:42.348Z,46.32
2018-12-21T12:07:42.024Z,46.3
2018-12-21T12:08:42.531Z,46.29
2018-12-21T12:09:43.049Z,46.32
2018-12-21T12:10:42.379Z,46.28
2018-12-21T12:11:42.733Z,46.27
2018-12-21T12:12:42.148Z,46.25
2018-12-21T12:13:42.188Z,46.26
2018-12-21T12:14:42.468Z,46.25
2018-12-21T12:15:42.488Z,46.26
2018-12-21T12:16:42.711Z,46.25
2018-12-21T12:17:42.506Z,46.21
2018-12-21T12:18:43.008Z,46.25
2018-12-21T12:19:42.381Z,46.22
2018-12-21T12:20:42.290Z,46.22
2018-12-21T12:21:42.146Z,46.25
2018-12-21T12:22:42.393Z,46.23
2018-12-21T12:23:42.396Z,46.22
2018-12-21T12:24:42.137Z,46.22
2018-12-21T12:25:42.176Z,46.33
2018-12-21T12:26:44.882Z,46.36
2018-12-21T12:27:42.414Z,46.35
2018-12-21T12:28:42.363Z,46.4
2018-12-21T12:29:42.200Z,46.37
2018-12-21T12:30:42.580Z,46.39
2018-12-21T12:31:43.276Z,46.38
2018-12-21T12:32:42.345Z,46.43
2018-12-21T12:33:42.534Z,46.43
2018-12-21T12:34:42.037Z,46.43
2018-12-21T12:35:42.603Z,46.44
2018-12-21T12:36:42.427Z,46.5
2018-12-21T12:37:42.846Z,46.49
2018-12-21T12:38:42.122Z,46.49
2018-12-21T12:39:42.350Z,46.45
2018-12-21T12:40:42.323Z,46.46
2018-12-21T12:41:42.351Z,46.51
2018-12-21T12:42:42.440Z,46.52
2018-12-21T12:43:42.252Z,46.47
2018-12-21T12:44:42.495Z,46.5
2018-12-21T12:45:42.191Z,46.55
2018-12-21T12:46:42.828Z,46.53
2018-12-21T12:47:42.165Z,46.5
2018-12-21T12:48:42.232Z,46.55
2018-12-21T12:49:42.110Z,46.5
2018-12-21T12:50:42.112Z,46.55
2018-12-21T12:51:42.129Z,46.55
2018-12-21T12:52:42.405Z,46.55
2018-12-21T12:53:42.332Z,46.56
2018-12-21T12:54:42.333Z,46.58
2018-12-21T12:55:42.260Z,46.55